createdAt,value
2022-11-13T00:01:38.471Z,24.08
2022-11-13T00:04:48.330Z,25.08
2022-11-13T00:07:57.622Z,24.15
2022-11-13T00:11:14.999Z,24.35
2022-11-13T00:14:23.980Z,25.17
2022-11-13T00:17:34.065Z,35.05
2022-11-13T00:20:43.427Z,29.48
2022-11-13T00:23:53.407Z,28.83
2022-11-13T00:27:02.299Z,23.20
2022-11-13T00:30:16.333Z,24.98
2022-11-13T00:34:01.969Z,24.83
2022-11-13T00:37:00.287Z,28.08
2022-11-13T00:40:09.596Z,25.58
2022-11-13T00:43:18.462Z,24.45
2022-11-13T00:46:27.865Z,23.73
2022-11-13T00:49:40.476Z,24.05
2022-11-13T00:52:50.220Z,24.23
2022-11-13T00:56:00.534Z,24.95
2022-11-13T00:59:12.705Z,25.10
2022-11-13T01:02:22.592Z,24.58
2022-11-13T01:05:39.919Z,24.00
2022-11-13T01:08:50.087Z,23.85
2022-11-13T01:11:59.772Z,24.70
2022-11-13T01:15:09.656Z,24.38
2022-11-13T01:18:18.904Z,23.75
2022-11-13T01:21:28.970Z,22.90
2022-11-13T01:24:37.994Z,23.58
2022-11-13T01:27:47.795Z,21.63
2022-11-13T01:30:57.276Z,23.15
2022-11-13T01:34:06.122Z,22.73
2022-11-13T01:37:15.570Z,22.38
2022-11-13T01:40:24.596Z,22.95
2022-11-13T01:43:38.551Z,21.88
2022-11-13T01:46:55.410Z,22.75
2022-11-13T01:50:06.085Z,22.83
2022-11-13T01:53:15.343Z,23.30
2022-11-13T01:56:25.376Z,22.70
2022-11-13T01:59:42.424Z,22.52
2022-11-13T02:02:51.411Z,22.88
2022-11-13T02:06:02.014Z,21.98
2022-11-13T02:09:13.692Z,21.40
2022-11-13T02:12:33.995Z,21.77
2022-11-13T02:15:45.720Z,20.25
2022-11-13T02:18:55.267Z,20.83
2022-11-13T02:22:13.253Z,21.65
2022-11-13T02:25:24.794Z,20.92
2022-11-13T02:28:33.811Z,20.23
2022-11-13T02:31:45.156Z,21.33
2022-11-13T02:34:56.491Z,21.77
2022-11-13T02:38:06.227Z,22.45
2022-11-13T02:41:14.842Z,20.38
2022-11-13T02:44:23.854Z,19.88
2022-11-13T02:47:33.502Z,20.88
2022-11-13T02:50:42.545Z,20.52
2022-11-13T02:53:51.953Z,19.85
2022-11-13T02:57:01.231Z,19.02
2022-11-13T03:00:13.832Z,19.27
2022-11-13T03:03:48.081Z,17.60
2022-11-13T03:06:52.132Z,18.58
2022-11-13T03:10:01.114Z,18.05
2022-11-13T03:13:09.923Z,20.00
2022-11-13T03:16:18.890Z,20.40
2022-11-13T03:19:28.206Z,19.45
2022-11-13T03:22:36.833Z,18.73
2022-11-13T03:25:45.557Z,18.63
2022-11-13T03:28:54.594Z,17.30
2022-11-13T03:32:03.327Z,18.30
2022-11-13T03:35:12.403Z,17.35
2022-11-13T03:38:21.867Z,16.13
2022-11-13T03:41:30.944Z,15.18
2022-11-13T03:44:39.823Z,17.08
2022-11-13T03:47:48.951Z,15.55
2022-11-13T03:50:58.000Z,16.55
2022-11-13T03:54:07.054Z,17.85
2022-11-13T03:57:15.769Z,14.82
2022-11-13T04:00:25.073Z,15.50
2022-11-13T04:03:34.077Z,15.65
2022-11-13T04:06:43.009Z,16.08
2022-11-13T04:09:52.237Z,14.02
2022-11-13T04:13:02.074Z,15.27
2022-11-13T04:16:11.337Z,16.13
2022-11-13T04:19:20.108Z,15.43
2022-11-13T04:22:28.798Z,16.25
2022-11-13T04:25:37.658Z,17.83
2022-11-13T04:28:46.281Z,14.43
2022-11-13T04:31:55.005Z,16.33
2022-11-13T04:35:04.009Z,16.50
2022-11-13T04:38:13.169Z,16.25
2022-11-13T04:41:40.777Z,17.17
2022-11-13T04:44:49.827Z,16.35
2022-11-13T04:47:58.954Z,16.73
2022-11-13T04:51:07.790Z,16.90
2022-11-13T04:54:17.272Z,15.40
2022-11-13T04:57:25.994Z,16.48
2022-11-13T05:00:34.681Z,15.68
2022-11-13T05:03:43.418Z,17.38
2022-11-13T05:06:52.621Z,17.00
2022-11-13T05:10:01.823Z,15.50
2022-11-13T05:13:10.979Z,15.82
2022-11-13T05:16:20.176Z,16.52
2022-11-13T05:19:29.058Z,16.35
2022-11-13T05:22:38.041Z,17.98
2022-11-13T05:25:46.871Z,17.70
2022-11-13T05:29:00.378Z,17.52
2022-11-13T05:32:09.554Z,17.25
2022-11-13T05:35:18.579Z,16.45
2022-11-13T05:38:29.027Z,16.42
2022-11-13T05:41:38.095Z,16.67
2022-11-13T05:44:47.185Z,16.25
2022-11-13T05:47:57.150Z,15.95
2022-11-13T05:51:09.334Z,15.63
2022-11-13T05:54:18.464Z,14.40
2022-11-13T05:57:28.488Z,14.88
2022-11-13T06:00:37.655Z,15.00
2022-11-13T06:03:47.597Z,14.43
2022-11-13T06:06:56.518Z,13.90
2022-11-13T06:10:06.297Z,14.65
2022-11-13T06:13:15.474Z,14.65
2022-11-13T06:16:30.436Z,14.63
2022-11-13T06:19:39.139Z,14.82
2022-11-13T06:22:48.132Z,14.55
2022-11-13T06:26:01.835Z,14.63
2022-11-13T06:29:12.842Z,16.42
2022-11-13T06:32:21.524Z,15.55
2022-11-13T06:35:30.756Z,15.30
2022-11-13T06:38:41.431Z,14.63
2022-11-13T06:41:50.191Z,14.07
2022-11-13T06:44:59.078Z,14.85
2022-11-13T06:48:08.188Z,16.88
2022-11-13T06:51:23.423Z,15.43
2022-11-13T06:54:32.236Z,14.20
2022-11-13T06:57:40.939Z,15.88
2022-11-13T07:00:50.253Z,17.95
2022-11-13T07:03:59.503Z,65.43
2022-11-13T07:07:08.501Z,38.63
2022-11-13T07:10:17.771Z,31.08
2022-11-13T07:13:28.079Z,14.57
2022-11-13T07:17:04.199Z,24.42
2022-11-13T07:20:06.592Z,22.42
2022-11-13T07:23:15.538Z,16.00
2022-11-13T07:26:24.424Z,21.52
2022-11-13T07:29:33.167Z,17.38
2022-11-13T07:32:42.112Z,15.02
2022-11-13T07:35:54.522Z,14.50
2022-11-13T07:39:03.900Z,14.35
2022-11-13T07:42:16.672Z,16.13
2022-11-13T07:45:27.944Z,15.77
2022-11-13T07:48:36.983Z,15.40
2022-11-13T07:51:45.807Z,16.98
2022-11-13T07:54:54.739Z,14.93
2022-11-13T07:58:05.109Z,16.05
2022-11-13T08:01:14.488Z,15.95
2022-11-13T08:04:23.716Z,16.40
2022-11-13T08:07:32.562Z,16.52
2022-11-13T08:10:41.974Z,17.27
2022-11-13T08:13:54.283Z,15.95
2022-11-13T08:17:03.667Z,17.67
2022-11-13T08:20:13.025Z,28.05
2022-11-13T08:23:22.320Z,19.00
2022-11-13T08:26:31.123Z,28.33
2022-11-13T08:29:39.813Z,20.85
2022-11-13T08:32:49.017Z,17.88
2022-11-13T08:35:59.951Z,17.67
2022-11-13T08:39:09.739Z,19.27
2022-11-13T08:42:18.860Z,17.50
2022-11-13T08:45:29.340Z,17.45
2022-11-13T08:48:38.257Z,18.08
2022-11-13T08:51:47.292Z,17.73
2022-11-13T08:54:55.969Z,17.88
2022-11-13T08:58:05.055Z,18.67
2022-11-13T09:01:14.076Z,18.60
2022-11-13T09:04:22.852Z,19.95
2022-11-13T09:07:32.228Z,19.58
2022-11-13T09:10:41.293Z,21.15
2022-11-13T09:13:53.269Z,41.35
2022-11-13T09:17:02.550Z,19.90
2022-11-13T09:20:13.977Z,19.60
2022-11-13T09:23:23.524Z,19.85
2022-11-13T09:26:34.647Z,19.10
2022-11-13T09:29:43.805Z,20.45
2022-11-13T09:32:57.664Z,19.85
2022-11-13T09:36:14.460Z,19.73
2022-11-13T09:39:23.508Z,20.13
2022-11-13T09:42:33.150Z,20.75
2022-11-13T09:45:42.388Z,23.33
2022-11-13T09:49:02.270Z,22.02
2022-11-13T09:52:29.966Z,22.55
2022-11-13T09:55:45.412Z,22.95
2022-11-13T09:59:20.882Z,23.10
2022-11-13T10:03:08.566Z,23.45
2022-11-13T10:06:36.730Z,21.98
2022-11-13T10:09:57.361Z,22.05
2022-11-13T10:13:12.206Z,23.02
2022-11-13T10:16:39.883Z,23.73
2022-11-13T10:20:00.997Z,24.45
2022-11-13T10:23:19.828Z,22.77
2022-11-13T10:26:29.612Z,22.45
2022-11-13T10:29:39.148Z,22.27
2022-11-13T10:32:48.296Z,22.80
2022-11-13T10:36:14.061Z,22.23
2022-11-13T10:39:23.201Z,23.00
2022-11-13T10:42:39.608Z,24.33
2022-11-13T10:46:00.788Z,23.30
2022-11-13T10:49:18.674Z,21.83
2022-11-13T10:52:28.898Z,22.17
2022-11-13T10:55:40.471Z,21.02
2022-11-13T10:59:19.021Z,21.30
2022-11-13T11:02:28.874Z,20.55
2022-11-13T11:05:37.716Z,21.80
2022-11-13T11:08:46.733Z,21.13
2022-11-13T11:12:30.421Z,20.15
2022-11-13T11:15:47.354Z,22.38
2022-11-13T11:19:04.441Z,21.25
2022-11-13T11:22:22.034Z,21.30
2022-11-13T11:25:52.500Z,21.73
2022-11-13T11:29:24.601Z,20.95
2022-11-13T11:32:43.893Z,21.15
2022-11-13T11:36:00.607Z,18.90
2022-11-13T11:39:13.068Z,17.70
2022-11-13T11:42:49.510Z,16.23
2022-11-13T11:45:58.842Z,16.40
2022-11-13T11:49:10.127Z,16.25
2022-11-13T11:52:42.662Z,16.85
2022-11-13T11:56:07.269Z,16.90
2022-11-13T11:59:24.190Z,16.15
2022-11-13T12:02:46.584Z,15.55
2022-11-13T12:06:24.913Z,15.82
2022-11-13T12:09:41.089Z,14.80
2022-11-13T12:13:17.636Z,15.05
2022-11-13T12:16:42.742Z,14.70
2022-11-13T12:20:21.169Z,14.40
2022-11-13T12:23:57.179Z,13.75
2022-11-13T12:27:35.820Z,13.77
2022-11-13T12:31:12.683Z,13.90
2022-11-13T12:34:35.512Z,15.02
2022-11-13T12:38:01.524Z,14.25
2022-11-13T12:41:24.381Z,14.30
2022-11-13T12:44:44.991Z,14.13
2022-11-13T12:47:54.468Z,13.35
2022-11-13T12:51:10.795Z,13.25
2022-11-13T12:54:40.334Z,12.65
2022-11-13T12:57:49.316Z,12.75
2022-11-13T13:01:18.362Z,12.38
2022-11-13T13:04:55.317Z,13.00
2022-11-13T13:08:29.159Z,12.18
2022-11-13T13:11:51.315Z,10.18
2022-11-13T13:15:32.889Z,10.57
2022-11-13T13:18:42.289Z,10.25
2022-11-13T13:21:51.820Z,11.00
2022-11-13T13:25:24.385Z,10.70
2022-11-13T13:28:33.852Z,10.75
2022-11-13T13:31:45.984Z,9.52
2022-11-13T13:35:19.622Z,9.05
2022-11-13T13:38:52.616Z,8.95
2022-11-13T13:42:25.587Z,9.32
2022-11-13T13:45:47.473Z,9.70
2022-11-13T13:49:05.461Z,9.38
2022-11-13T13:52:16.017Z,8.75
2022-11-13T13:55:32.077Z,8.93
2022-11-13T13:58:42.244Z,9.07
2022-11-13T14:02:00.443Z,8.95
2022-11-13T14:05:38.316Z,9.13
2022-11-13T14:08:48.564Z,9.35
2022-11-13T14:12:00.664Z,9.52
2022-11-13T14:15:29.347Z,9.63
2022-11-13T14:18:38.541Z,9.82
2022-11-13T14:21:54.177Z,9.80
2022-11-13T14:25:03.658Z,10.05
2022-11-13T14:28:18.379Z,9.55
2022-11-13T14:31:35.453Z,9.75
2022-11-13T14:34:46.802Z,9.15
2022-11-13T14:37:56.096Z,10.05
2022-11-13T14:41:05.568Z,9.57
2022-11-13T14:44:30.656Z,9.50
2022-11-13T14:47:40.921Z,10.30
2022-11-13T14:50:57.688Z,10.77
2022-11-13T14:54:26.946Z,10.45
2022-11-13T14:57:36.108Z,10.60
2022-11-13T15:00:45.272Z,10.77
2022-11-13T15:03:54.307Z,10.52
2022-11-13T15:07:20.971Z,11.13
2022-11-13T15:10:31.238Z,10.30
2022-11-13T15:13:40.801Z,10.90
2022-11-13T15:16:53.288Z,10.80
2022-11-13T15:20:08.319Z,10.95
2022-11-13T15:23:26.473Z,12.27
2022-11-13T15:26:35.647Z,11.32
2022-11-13T15:29:44.837Z,10.18
2022-11-13T15:32:54.885Z,21.92
2022-11-13T15:36:04.129Z,12.57
2022-11-13T15:39:23.021Z,11.30
2022-11-13T15:42:34.967Z,11.40
2022-11-13T15:45:44.874Z,10.38
2022-11-13T15:48:54.286Z,11.02
2022-11-13T15:52:04.869Z,11.45
2022-11-13T15:55:30.605Z,10.70
2022-11-13T15:58:39.847Z,10.88
2022-11-13T16:01:51.738Z,10.57
2022-11-13T16:05:03.173Z,11.90
2022-11-13T16:08:15.051Z,11.13
2022-11-13T16:11:24.290Z,11.38
2022-11-13T16:14:33.755Z,12.35
2022-11-13T16:17:47.701Z,10.95
2022-11-13T16:20:56.399Z,11.88
2022-11-13T16:24:05.710Z,11.15
2022-11-13T16:27:24.252Z,11.65
2022-11-13T16:30:33.074Z,14.82
2022-11-13T16:33:44.558Z,15.18
2022-11-13T16:36:53.822Z,12.88
2022-11-13T16:40:03.070Z,14.27
2022-11-13T16:43:13.020Z,12.77
2022-11-13T16:46:34.576Z,14.32
2022-11-13T16:49:43.733Z,16.13
2022-11-13T16:53:19.065Z,17.38
2022-11-13T16:56:30.186Z,16.58
2022-11-13T16:59:40.347Z,14.73
2022-11-13T17:02:50.897Z,14.52
2022-11-13T17:06:00.041Z,15.50
2022-11-13T17:09:09.696Z,14.75
2022-11-13T17:12:21.890Z,15.18
2022-11-13T17:15:32.381Z,15.43
2022-11-13T17:18:44.540Z,16.63
2022-11-13T17:22:05.426Z,16.85
2022-11-13T17:25:19.132Z,16.50
2022-11-13T17:28:53.900Z,16.35
2022-11-13T17:32:02.938Z,16.38
2022-11-13T17:35:13.133Z,15.35
2022-11-13T17:38:26.301Z,17.17
2022-11-13T17:41:38.634Z,25.10
2022-11-13T17:44:47.711Z,25.55
2022-11-13T17:47:56.836Z,18.67
2022-11-13T17:51:07.983Z,19.05
2022-11-13T17:54:17.261Z,19.98
2022-11-13T17:57:27.401Z,26.50
2022-11-13T18:00:37.036Z,19.25
2022-11-13T18:03:47.111Z,22.90
2022-11-13T18:06:56.610Z,22.25
2022-11-13T18:10:06.552Z,24.85
2022-11-13T18:13:15.656Z,23.77
2022-11-13T18:16:29.783Z,38.47
2022-11-13T18:19:39.152Z,25.23
2022-11-13T18:22:48.625Z,32.75
2022-11-13T18:25:57.750Z,28.63
2022-11-13T18:29:07.304Z,26.80
2022-11-13T18:32:16.143Z,25.42
2022-11-13T18:35:25.200Z,26.48
2022-11-13T18:38:34.509Z,26.17
2022-11-13T18:41:43.749Z,29.35
2022-11-13T18:44:53.298Z,21.67
2022-11-13T18:48:02.398Z,21.55
2022-11-13T18:51:14.739Z,24.70
2022-11-13T18:54:23.773Z,24.33
2022-11-13T18:57:33.201Z,24.67
2022-11-13T19:00:42.339Z,26.48
2022-11-13T19:04:21.207Z,27.10
2022-11-13T19:07:21.713Z,30.90
2022-11-13T19:10:30.358Z,30.40
2022-11-13T19:13:41.081Z,28.58
2022-11-13T19:16:50.321Z,22.52
2022-11-13T19:19:59.406Z,23.50
2022-11-13T19:23:09.557Z,21.90
2022-11-13T19:26:19.060Z,22.52
2022-11-13T19:29:28.076Z,24.17
2022-11-13T19:32:36.970Z,27.05
2022-11-13T19:35:45.540Z,33.22
2022-11-13T19:38:55.433Z,25.45
2022-11-13T19:42:04.602Z,26.10
2022-11-13T19:45:13.564Z,24.98
2022-11-13T19:48:22.483Z,29.00
2022-11-13T19:51:31.187Z,28.92
2022-11-13T19:54:40.155Z,31.75
2022-11-13T19:57:50.065Z,31.75
2022-11-13T20:00:59.276Z,29.48
2022-11-13T20:04:11.774Z,26.20
2022-11-13T20:07:20.881Z,25.10
2022-11-13T20:10:31.052Z,25.23
2022-11-13T20:13:41.617Z,24.73
2022-11-13T20:16:50.602Z,26.38
2022-11-13T20:19:59.617Z,27.42
2022-11-13T20:23:08.414Z,26.00
2022-11-13T20:26:17.220Z,28.23
2022-11-13T20:29:26.205Z,28.30
2022-11-13T20:32:39.247Z,26.83
2022-11-13T20:35:54.658Z,26.17
2022-11-13T20:39:08.983Z,25.02
2022-11-13T20:42:18.355Z,26.58
2022-11-13T20:45:27.276Z,26.75
2022-11-13T20:48:36.901Z,25.73
2022-11-13T20:51:45.916Z,26.17
2022-11-13T20:54:54.589Z,25.45
2022-11-13T20:58:03.269Z,24.02
2022-11-13T21:01:17.975Z,24.67
2022-11-13T21:04:26.780Z,23.42
2022-11-13T21:07:35.454Z,22.90
2022-11-13T21:10:44.214Z,24.98
2022-11-13T21:13:55.289Z,23.40
2022-11-13T21:17:04.109Z,22.83
2022-11-13T21:20:13.169Z,23.27
2022-11-13T21:23:22.234Z,24.92
2022-11-13T21:26:31.101Z,25.92
2022-11-13T21:29:40.238Z,26.83
2022-11-13T21:32:49.439Z,26.65
2022-11-13T21:36:04.015Z,23.20
2022-11-13T21:39:13.026Z,23.70
2022-11-13T21:42:21.841Z,23.85
2022-11-13T21:45:33.444Z,26.00
2022-11-13T21:48:42.711Z,25.00
2022-11-13T21:51:51.504Z,24.10
2022-11-13T21:55:00.436Z,24.35
2022-11-13T21:58:09.051Z,22.48
2022-11-13T22:01:17.968Z,20.52
2022-11-13T22:04:27.664Z,25.73
2022-11-13T22:07:36.715Z,23.65
2022-11-13T22:10:45.421Z,24.17
2022-11-13T22:13:55.090Z,27.08
2022-11-13T22:17:04.045Z,24.10
2022-11-13T22:20:13.086Z,24.40
2022-11-13T22:23:21.874Z,23.95
2022-11-13T22:26:31.642Z,22.48
2022-11-13T22:29:43.331Z,23.65
2022-11-13T22:32:52.074Z,22.58
2022-11-13T22:36:10.241Z,23.52
2022-11-13T22:39:19.456Z,20.52
2022-11-13T22:42:28.051Z,22.35
2022-11-13T22:45:37.056Z,25.02
2022-11-13T22:48:47.572Z,23.17
2022-11-13T22:51:56.521Z,24.58
2022-11-13T22:55:05.868Z,23.13
2022-11-13T22:58:14.671Z,23.15
2022-11-13T23:01:31.872Z,23.83
2022-11-13T23:04:40.876Z,25.02
2022-11-13T23:07:49.766Z,26.50
2022-11-13T23:10:58.737Z,25.42
2022-11-13T23:14:11.476Z,26.35
2022-11-13T23:17:20.416Z,28.77
2022-11-13T23:20:29.030Z,28.50
2022-11-13T23:23:37.872Z,26.52
2022-11-13T23:26:46.909Z,25.45
2022-11-13T23:29:55.800Z,23.17
2022-11-13T23:33:04.904Z,24.13
2022-11-13T23:36:14.798Z,26.02
2022-11-13T23:39:23.913Z,25.13
2022-11-13T23:42:53.956Z,24.73
2022-11-13T23:46:02.191Z,27.30
2022-11-13T23:49:11.169Z,27.27
2022-11-13T23:52:20.224Z,25.95
2022-11-13T23:55:29.538Z,25.90
2022-11-13T23:58:38.684Z,25.60
